sensor_id;sensor_type;location;lat;lon;timestamp;temperature;humidity
69938;DHT22;57248;47.320;15.998;2023-07-20T00:01:28;19.73;71.68
69938;DHT22;57248;47.320;15.998;2023-07-20T00:03:54;19.69;70.88
69938;DHT22;57248;47.320;15.998;2023-07-20T00:06:28;19.72;68.09
69938;DHT22;57248;47.320;15.998;2023-07-20T00:09:00;19.72;68.68
69938;DHT22;57248;47.320;15.998;2023-07-20T00:11:35;20.02;65.92
69938;DHT22;57248;47.320;15.998;2023-07-20T00:14:08;19.71;69.74
69938;DHT22;57248;47.320;15.998;2023-07-20T00:16:40;19.81;68.09
69938;DHT22;57248;47.320;15.998;2023-07-20T00:19:05;19.62;69.69
69938;DHT22;57248;47.320;15.998;2023-07-20T00:21:38;19.82;67.34
69938;DHT22;57248;47.320;15.998;2023-07-20T00:24:12;19.87;67.30
69938;DHT22;57248;47.320;15.998;2023-07-20T00:26:45;19.79;67.49
69938;DHT22;57248;47.320;15.998;2023-07-20T00:29:18;19.66;70.29
69938;DHT22;57248;47.320;15.998;2023-07-20T00:31:50;19.55;71.72
69938;DHT22;57248;47.320;15.998;2023-07-20T00:34:22;19.38;74.82
69938;DHT22;57248;47.320;15.998;2023-07-20T00:36:54;19.18;75.67
69938;DHT22;57248;47.320;15.998;2023-07-20T00:39:19;19.15;76.60
69938;DHT22;57248;47.320;15.998;2023-07-20T00:41:51;19.03;75.70
69938;DHT22;57248;47.320;15.998;2023-07-20T00:44:23;19.06;77.14
69938;DHT22;57248;47.320;15.998;2023-07-20T00:46:55;19.06;77.82
69938;DHT22;57248;47.320;15.998;2023-07-20T00:49:27;19.02;76.32
69938;DHT22;57248;47.320;15.998;2023-07-20T00:52:06;18.97;78.07
69938;DHT22;57248;47.320;15.998;2023-07-20T00:54:32;18.96;76.51
69938;DHT22;57248;47.320;15.998;2023-07-20T00:57:07;18.93;77.66
69938;DHT22;57248;47.320;15.998;2023-07-20T00:59:39;18.90;77.95
69938;DHT22;57248;47.320;15.998;2023-07-20T01:02:11;18.89;78.71
69938;DHT22;57248;47.320;15.998;2023-07-20T01:04:43;18.80;80.12
69938;DHT22;57248;47.320;15.998;2023-07-20T01:07:23;18.86;79.64
69938;DHT22;57248;47.320;15.998;2023-07-20T01:10:01;18.72;79.89
69938;DHT22;57248;47.320;15.998;2023-07-20T01:12:41;18.73;80.55
69938;DHT22;57248;47.320;15.998;2023-07-20T01:15:13;18.70;79.88
69938;DHT22;57248;47.320;15.998;2023-07-20T01:17:45;18.59;80.66
69938;DHT22;57248;47.320;15.998;2023-07-20T01:20:19;18.63;79.93
69938;DHT22;57248;47.320;15.998;2023-07-20T01:26:02;18.41;80.18
69938;DHT22;57248;47.320;15.998;2023-07-20T01:28:52;18.52;78.55
69938;DHT22;57248;47.320;15.998;2023-07-20T01:31:30;18.55;79.28
69938;DHT22;57248;47.320;15.998;2023-07-20T01:34:03;18.46;80.47
69938;DHT22;57248;47.320;15.998;2023-07-20T01:36:37;18.46;79.11
69938;DHT22;57248;47.320;15.998;2023-07-20T01:39:10;18.32;80.77
69938;DHT22;57248;47.320;15.998;2023-07-20T01:41:42;18.35;80.36
69938;DHT22;57248;47.320;15.998;2023-07-20T01:44:15;18.31;80.79
69938;DHT22;57248;47.320;15.998;2023-07-20T01:46:40;18.18;82.41
69938;DHT22;57248;47.320;15.998;2023-07-20T01:49:19;18.21;81.74
69938;DHT22;57248;47.320;15.998;2023-07-20T01:51:51;18.31;81.05
69938;DHT22;57248;47.320;15.998;2023-07-20T01:54:23;18.43;80.71
69938;DHT22;57248;47.320;15.998;2023-07-20T01:56:55;18.57;79.91
69938;DHT22;57248;47.320;15.998;2023-07-20T01:59:27;18.62;79.92
69938;DHT22;57248;47.320;15.998;2023-07-20T02:01:59;18.65;79.52
69938;DHT22;57248;47.320;15.998;2023-07-20T02:04:31;18.63;80.09
69938;DHT22;57248;47.320;15.998;2023-07-20T02:07:03;18.76;77.59
69938;DHT22;57248;47.320;15.998;2023-07-20T02:09:35;18.70;77.87
69938;DHT22;57248;47.320;15.998;2023-07-20T02:12:07;18.72;79.62
69938;DHT22;57248;47.320;15.998;2023-07-20T02:14:39;18.65;79.81
69938;DHT22;57248;47.320;15.998;2023-07-20T02:17:11;18.67;79.32
69938;DHT22;57248;47.320;15.998;2023-07-20T02:19:43;18.87;84.23
69938;DHT22;57248;47.320;15.998;2023-07-20T02:22:15;18.72;79.78
69938;DHT22;57248;47.320;15.998;2023-07-20T02:24:48;18.65;80.98
69938;DHT22;57248;47.320;15.998;2023-07-20T02:27:21;18.73;80.12
69938;DHT22;57248;47.320;15.998;2023-07-20T02:29:53;19.00;78.76
69938;DHT22;57248;47.320;15.998;2023-07-20T02:32:25;18.76;79.73
69938;DHT22;57248;47.320;15.998;2023-07-20T02:34:51;19.13;79.14
69938;DHT22;57248;47.320;15.998;2023-07-20T02:37:23;18.93;79.88
69938;DHT22;57248;47.320;15.998;2023-07-20T02:39:55;19.36;78.63
69938;DHT22;57248;47.320;15.998;2023-07-20T02:42:28;19.06;78.51
69938;DHT22;57248;47.320;15.998;2023-07-20T02:45:01;19.10;78.79
69938;DHT22;57248;47.320;15.998;2023-07-20T02:47:33;19.27;78.84
69938;DHT22;57248;47.320;15.998;2023-07-20T02:50:12;19.44;76.47
69938;DHT22;57248;47.320;15.998;2023-07-20T02:52:45;19.52;75.37
69938;DHT22;57248;47.320;15.998;2023-07-20T02:55:17;19.30;76.09
69938;DHT22;57248;47.320;15.998;2023-07-20T02:57:49;19.13;78.46
69938;DHT22;57248;47.320;15.998;2023-07-20T03:00:22;19.02;78.77
69938;DHT22;57248;47.320;15.998;2023-07-20T03:02:54;18.96;78.90
69938;DHT22;57248;47.320;15.998;2023-07-20T03:05:27;18.82;79.65
69938;DHT22;57248;47.320;15.998;2023-07-20T03:07:59;18.73;80.74
69938;DHT22;57248;47.320;15.998;2023-07-20T03:10:27;18.76;80.86
69938;DHT22;57248;47.320;15.998;2023-07-20T03:13:00;18.86;79.66
69938;DHT22;57248;47.320;15.998;2023-07-20T03:15:32;18.84;79.59
69938;DHT22;57248;47.320;15.998;2023-07-20T03:18:04;18.79;79.50
69938;DHT22;57248;47.320;15.998;2023-07-20T03:20:36;18.72;80.03
69938;DHT22;57248;47.320;15.998;2023-07-20T03:23:08;18.82;79.75
69938;DHT22;57248;47.320;15.998;2023-07-20T03:25:40;18.72;81.13
69938;DHT22;57248;47.320;15.998;2023-07-20T03:28:12;18.63;81.04
69938;DHT22;57248;47.320;15.998;2023-07-20T03:30:44;18.80;79.00
69938;DHT22;57248;47.320;15.998;2023-07-20T03:33:17;18.86;78.04
69938;DHT22;57248;47.320;15.998;2023-07-20T03:35:49;18.92;79.39
69938;DHT22;57248;47.320;15.998;2023-07-20T03:38:22;18.76;80.12
69938;DHT22;57248;47.320;15.998;2023-07-20T03:40:56;18.76;80.96
69938;DHT22;57248;47.320;15.998;2023-07-20T03:43:28;18.59;81.83
69938;DHT22;57248;47.320;15.998;2023-07-20T03:46:00;18.66;81.12
69938;DHT22;57248;47.320;15.998;2023-07-20T03:48:39;18.83;79.18
69938;DHT22;57248;47.320;15.998;2023-07-20T03:51:11;18.92;79.52
69938;DHT22;57248;47.320;15.998;2023-07-20T03:53:36;18.93;79.13
69938;DHT22;57248;47.320;15.998;2023-07-20T03:56:09;19.00;80.25
69938;DHT22;57248;47.320;15.998;2023-07-20T03:58:41;19.10;80.85
69938;DHT22;57248;47.320;15.998;2023-07-20T04:01:13;19.17;79.95
69938;DHT22;57248;47.320;15.998;2023-07-20T04:03:45;19.75;79.54
69938;DHT22;57248;47.320;15.998;2023-07-20T04:06:17;19.75;77.15
69938;DHT22;57248;47.320;15.998;2023-07-20T04:08:49;19.97;73.59
69938;DHT22;57248;47.320;15.998;2023-07-20T04:11:21;20.05;73.93
69938;DHT22;57248;47.320;15.998;2023-07-20T04:13:53;20.12;73.17
69938;DHT22;57248;47.320;15.998;2023-07-20T04:16:25;20.26;72.43
69938;DHT22;57248;47.320;15.998;2023-07-20T04:18:58;20.47;71.17
69938;DHT22;57248;47.320;15.998;2023-07-20T04:21:30;20.63;70.32
69938;DHT22;57248;47.320;15.998;2023-07-20T04:24:02;20.71;70.24
69938;DHT22;57248;47.320;15.998;2023-07-20T04:26:34;20.71;70.97
69938;DHT22;57248;47.320;15.998;2023-07-20T04:29:08;20.78;70.51
69938;DHT22;57248;47.320;15.998;2023-07-20T04:31:43;20.94;70.05
69938;DHT22;57248;47.320;15.998;2023-07-20T04:34:15;20.96;70.29
69938;DHT22;57248;47.320;15.998;2023-07-20T04:36:47;21.03;70.25
69938;DHT22;57248;47.320;15.998;2023-07-20T04:39:13;21.13;70.01
69938;DHT22;57248;47.320;15.998;2023-07-20T04:41:46;21.13;69.45
69938;DHT22;57248;47.320;15.998;2023-07-20T04:44:18;21.22;69.72
69938;DHT22;57248;47.320;15.998;2023-07-20T04:46:43;21.32;69.47
69938;DHT22;57248;47.320;15.998;2023-07-20T04:49:17;21.43;69.27
69938;DHT22;57248;47.320;15.998;2023-07-20T04:51:55;21.49;69.38
69938;DHT22;57248;47.320;15.998;2023-07-20T04:54:27;21.53;69.33
69938;DHT22;57248;47.320;15.998;2023-07-20T04:56:59;21.56;71.39
69938;DHT22;57248;47.320;15.998;2023-07-20T04:59:32;21.60;71.35
69938;DHT22;57248;47.320;15.998;2023-07-20T05:02:04;21.57;73.57
69938;DHT22;57248;47.320;15.998;2023-07-20T05:04:36;21.54;73.34
69938;DHT22;57248;47.320;15.998;2023-07-20T05:07:08;21.53;72.41
69938;DHT22;57248;47.320;15.998;2023-07-20T05:09:41;21.50;72.56
69938;DHT22;57248;47.320;15.998;2023-07-20T05:12:13;21.39;73.60
69938;DHT22;57248;47.320;15.998;2023-07-20T05:14:46;21.29;74.60
69938;DHT22;57248;47.320;15.998;2023-07-20T05:17:18;21.36;75.07
69938;DHT22;57248;47.320;15.998;2023-07-20T05:19:51;21.43;75.30
69938;DHT22;57248;47.320;15.998;2023-07-20T05:22:23;21.60;74.71
69938;DHT22;57248;47.320;15.998;2023-07-20T05:24:56;21.46;75.56
69938;DHT22;57248;47.320;15.998;2023-07-20T05:27:28;21.69;74.05
69938;DHT22;57248;47.320;15.998;2023-07-20T05:29:54;21.71;73.16
69938;DHT22;57248;47.320;15.998;2023-07-20T05:32:25;21.64;73.60
69938;DHT22;57248;47.320;15.998;2023-07-20T05:34:58;21.69;76.13
69938;DHT22;57248;47.320;15.998;2023-07-20T05:37:30;21.69;76.14
69938;DHT22;57248;47.320;15.998;2023-07-20T05:40:02;21.61;77.50
69938;DHT22;57248;47.320;15.998;2023-07-20T05:42:34;21.73;79.02
69938;DHT22;57248;47.320;15.998;2023-07-20T05:45:08;21.84;76.33
69938;DHT22;57248;47.320;15.998;2023-07-20T05:47:33;21.80;77.74
69938;DHT22;57248;47.320;15.998;2023-07-20T05:50:06;21.86;79.18
69938;DHT22;57248;47.320;15.998;2023-07-20T05:52:39;22.00;77.82
69938;DHT22;57248;47.320;15.998;2023-07-20T05:55:12;22.01;77.54
69938;DHT22;57248;47.320;15.998;2023-07-20T05:57:44;22.01;76.32
69938;DHT22;57248;47.320;15.998;2023-07-20T06:00:18;21.89;76.89
69938;DHT22;57248;47.320;15.998;2023-07-20T06:02:50;21.94;78.05
69938;DHT22;57248;47.320;15.998;2023-07-20T06:05:23;21.94;77.36
69938;DHT22;57248;47.320;15.998;2023-07-20T06:07:55;21.91;77.97
69938;DHT22;57248;47.320;15.998;2023-07-20T06:10:22;21.91;78.34
69938;DHT22;57248;47.320;15.998;2023-07-20T06:12:54;21.91;78.14
69938;DHT22;57248;47.320;15.998;2023-07-20T06:15:31;21.84;78.64
69938;DHT22;57248;47.320;15.998;2023-07-20T06:18:03;21.79;79.93
69938;DHT22;57248;47.320;15.998;2023-07-20T06:20:35;21.84;79.77
69938;DHT22;57248;47.320;15.998;2023-07-20T06:23:07;21.89;79.04
69938;DHT22;57248;47.320;15.998;2023-07-20T06:25:39;21.77;79.45
69938;DHT22;57248;47.320;15.998;2023-07-20T06:28:11;21.97;77.94
69938;DHT22;57248;47.320;15.998;2023-07-20T06:30:37;22.37;76.30
69938;DHT22;57248;47.320;15.998;2023-07-20T06:33:24;22.53;77.32
69938;DHT22;57248;47.320;15.998;2023-07-20T06:35:58;22.92;77.38
69938;DHT22;57248;47.320;15.998;2023-07-20T06:38:38;23.28;74.84
69938;DHT22;57248;47.320;15.998;2023-07-20T06:41:10;23.33;73.24
69938;DHT22;57248;47.320;15.998;2023-07-20T06:43:43;23.81;73.02
69938;DHT22;57248;47.320;15.998;2023-07-20T06:46:14;24.39;70.66
69938;DHT22;57248;47.320;15.998;2023-07-20T06:48:53;25.28;68.26
69938;DHT22;57248;47.320;15.998;2023-07-20T06:51:25;25.72;67.89
69938;DHT22;57248;47.320;15.998;2023-07-20T06:53:57;25.94;66.41
69938;DHT22;57248;47.320;15.998;2023-07-20T06:56:30;25.77;68.04
69938;DHT22;57248;47.320;15.998;2023-07-20T06:59:02;25.65;66.49
69938;DHT22;57248;47.320;15.998;2023-07-20T07:01:34;25.49;66.11
69938;DHT22;57248;47.320;15.998;2023-07-20T07:04:06;25.86;66.85
69938;DHT22;57248;47.320;15.998;2023-07-20T07:06:38;25.98;66.16
69938;DHT22;57248;47.320;15.998;2023-07-20T07:09:04;26.25;65.75
69938;DHT22;57248;47.320;15.998;2023-07-20T07:11:35;26.55;65.99
69938;DHT22;57248;47.320;15.998;2023-07-20T07:14:08;26.44;65.31
69938;DHT22;57248;47.320;15.998;2023-07-20T07:16:40;26.25;66.67
69938;DHT22;57248;47.320;15.998;2023-07-20T07:19:12;25.92;65.26
69938;DHT22;57248;47.320;15.998;2023-07-20T07:21:44;25.75;64.61
69938;DHT22;57248;47.320;15.998;2023-07-20T07:24:16;26.13;65.75
69938;DHT22;57248;47.320;15.998;2023-07-20T07:26:48;26.43;62.63
69938;DHT22;57248;47.320;15.998;2023-07-20T07:29:20;26.41;62.62
69938;DHT22;57248;47.320;15.998;2023-07-20T07:31:53;26.76;62.93
69938;DHT22;57248;47.320;15.998;2023-07-20T07:34:25;26.75;59.68
69938;DHT22;57248;47.320;15.998;2023-07-20T07:36:58;26.41;62.36
69938;DHT22;57248;47.320;15.998;2023-07-20T07:39:30;26.51;61.10
69938;DHT22;57248;47.320;15.998;2023-07-20T07:42:03;27.09;60.76
69938;DHT22;57248;47.320;15.998;2023-07-20T07:44:35;27.42;62.22
69938;DHT22;57248;47.320;15.998;2023-07-20T07:47:08;27.32;61.26
69938;DHT22;57248;47.320;15.998;2023-07-20T07:49:40;29.12;58.53
69938;DHT22;57248;47.320;15.998;2023-07-20T07:52:13;30.47;52.65
69938;DHT22;57248;47.320;15.998;2023-07-20T07:54:45;31.65;52.76
69938;DHT22;57248;47.320;15.998;2023-07-20T07:57:17;32.54;43.69
69938;DHT22;57248;47.320;15.998;2023-07-20T07:59:49;34.64;45.15
69938;DHT22;57248;47.320;15.998;2023-07-20T08:02:21;35.72;39.80
69938;DHT22;57248;47.320;15.998;2023-07-20T08:04:53;35.71;36.38
69938;DHT22;57248;47.320;15.998;2023-07-20T08:07:25;37.41;34.30
69938;DHT22;57248;47.320;15.998;2023-07-20T08:09:58;37.73;36.30
69938;DHT22;57248;47.320;15.998;2023-07-20T08:12:30;38.92;32.39
69938;DHT22;57248;47.320;15.998;2023-07-20T08:15:02;39.64;34.81
69938;DHT22;57248;47.320;15.998;2023-07-20T08:17:35;40.48;32.93
69938;DHT22;57248;47.320;15.998;2023-07-20T08:20:09;41.81;31.34
69938;DHT22;57248;47.320;15.998;2023-07-20T08:22:45;39.46;33.04
69938;DHT22;57248;47.320;15.998;2023-07-20T08:25:16;38.51;35.08
69938;DHT22;57248;47.320;15.998;2023-07-20T08:27:48;41.11;31.30
69938;DHT22;57248;47.320;15.998;2023-07-20T08:30:21;41.43;29.71
69938;DHT22;57248;47.320;15.998;2023-07-20T08:32:55;40.17;33.86
69938;DHT22;57248;47.320;15.998;2023-07-20T08:35:21;40.76;32.22
69938;DHT22;57248;47.320;15.998;2023-07-20T08:37:52;41.22;29.75
69938;DHT22;57248;47.320;15.998;2023-07-20T08:40:18;40.58;30.98
69938;DHT22;57248;47.320;15.998;2023-07-20T08:42:50;41.88;30.82
69938;DHT22;57248;47.320;15.998;2023-07-20T08:45:26;42.84;31.04
69938;DHT22;57248;47.320;15.998;2023-07-20T08:47:52;40.99;30.83
69938;DHT22;57248;47.320;15.998;2023-07-20T08:50:26;39.56;34.04
69938;DHT22;57248;47.320;15.998;2023-07-20T08:53:06;40.37;30.07
69938;DHT22;57248;47.320;15.998;2023-07-20T08:55:39;39.18;32.14
69938;DHT22;57248;47.320;15.998;2023-07-20T08:58:12;40.25;31.80
69938;DHT22;57248;47.320;15.998;2023-07-20T09:00:39;41.06;29.84
69938;DHT22;57248;47.320;15.998;2023-07-20T09:03:11;42.54;28.71
69938;DHT22;57248;47.320;15.998;2023-07-20T09:05:44;42.63;30.31
69938;DHT22;57248;47.320;15.998;2023-07-20T09:08:16;41.43;30.58
69938;DHT22;57248;47.320;15.998;2023-07-20T09:10:50;42.16;30.67
69938;DHT22;57248;47.320;15.998;2023-07-20T09:13:21;42.15;29.57
69938;DHT22;57248;47.320;15.998;2023-07-20T09:15:54;42.91;29.75
69938;DHT22;57248;47.320;15.998;2023-07-20T09:18:31;43.96;27.41
69938;DHT22;57248;47.320;15.998;2023-07-20T09:21:05;39.19;31.69
69938;DHT22;57248;47.320;15.998;2023-07-20T09:23:38;41.43;29.49
69938;DHT22;57248;47.320;15.998;2023-07-20T09:26:12;41.57;31.24
69938;DHT22;57248;47.320;15.998;2023-07-20T09:28:51;41.55;29.82
69938;DHT22;57248;47.320;15.998;2023-07-20T09:31:24;41.33;29.57
69938;DHT22;57248;47.320;15.998;2023-07-20T09:33:56;42.05;30.07
69938;DHT22;57248;47.320;15.998;2023-07-20T09:36:33;44.90;27.11
69938;DHT22;57248;47.320;15.998;2023-07-20T09:39:05;42.33;28.87
69938;DHT22;57248;47.320;15.998;2023-07-20T09:41:41;43.59;29.86
69938;DHT22;57248;47.320;15.998;2023-07-20T09:44:14;43.82;27.91
69938;DHT22;57248;47.320;15.998;2023-07-20T09:46:48;42.43;29.05
69938;DHT22;57248;47.320;15.998;2023-07-20T09:49:27;39.94;31.32
69938;DHT22;57248;47.320;15.998;2023-07-20T09:52:00;38.20;31.36
69938;DHT22;57248;47.320;15.998;2023-07-20T09:54:39;40.79;28.76
69938;DHT22;57248;47.320;15.998;2023-07-20T09:57:11;42.39;27.81
69938;DHT22;57248;47.320;15.998;2023-07-20T09:59:45;39.90;30.42
69938;DHT22;57248;47.320;15.998;2023-07-20T10:02:21;38.44;33.15
69938;DHT22;57248;47.320;15.998;2023-07-20T10:04:57;35.14;33.70
69938;DHT22;57248;47.320;15.998;2023-07-20T10:07:31;33.88;36.50
69938;DHT22;57248;47.320;15.998;2023-07-20T10:10:06;33.34;36.70
69938;DHT22;57248;47.320;15.998;2023-07-20T10:12:41;34.64;38.47
69938;DHT22;57248;47.320;15.998;2023-07-20T10:15:32;35.62;36.43
69938;DHT22;57248;47.320;15.998;2023-07-20T10:18:20;34.96;38.98
69938;DHT22;57248;47.320;15.998;2023-07-20T10:20:56;34.52;36.81
69938;DHT22;57248;47.320;15.998;2023-07-20T10:23:29;34.46;36.63
69938;DHT22;57248;47.320;15.998;2023-07-20T10:26:02;33.09;38.99
69938;DHT22;57248;47.320;15.998;2023-07-20T10:28:35;32.34;39.25
69938;DHT22;57248;47.320;15.998;2023-07-20T10:31:12;33.07;38.46
69938;DHT22;57248;47.320;15.998;2023-07-20T10:33:46;34.02;37.54
69938;DHT22;57248;47.320;15.998;2023-07-20T10:36:27;34.90;36.42
69938;DHT22;57248;47.320;15.998;2023-07-20T10:38:59;33.04;36.92
69938;DHT22;57248;47.320;15.998;2023-07-20T10:41:39;33.75;36.84
69938;DHT22;57248;47.320;15.998;2023-07-20T10:44:12;35.75;39.49
69938;DHT22;57248;47.320;15.998;2023-07-20T10:46:46;37.19;32.79
69938;DHT22;57248;47.320;15.998;2023-07-20T10:49:18;36.53;33.22
69938;DHT22;57248;47.320;15.998;2023-07-20T10:52:00;37.65;31.33
69938;DHT22;57248;47.320;15.998;2023-07-20T10:54:46;40.44;30.07
69938;DHT22;57248;47.320;15.998;2023-07-20T10:57:31;43.34;30.09
69938;DHT22;57248;47.320;15.998;2023-07-20T11:00:13;45.29;28.01
69938;DHT22;57248;47.320;15.998;2023-07-20T11:02:49;43.89;26.39
69938;DHT22;57248;47.320;15.998;2023-07-20T11:05:38;44.78;27.69
69938;DHT22;57248;47.320;15.998;2023-07-20T11:08:12;42.67;27.66
69938;DHT22;57248;47.320;15.998;2023-07-20T11:10:46;40.21;29.74
69938;DHT22;57248;47.320;15.998;2023-07-20T11:13:24;40.51;32.26
69938;DHT22;57248;47.320;15.998;2023-07-20T11:18:33;37.92;31.69
69938;DHT22;57248;47.320;15.998;2023-07-20T11:21:08;38.52;32.63
69938;DHT22;57248;47.320;15.998;2023-07-20T11:23:42;36.37;31.98
69938;DHT22;57248;47.320;15.998;2023-07-20T11:26:14;36.37;34.42
69938;DHT22;57248;47.320;15.998;2023-07-20T11:28:52;36.15;35.42
69938;DHT22;57248;47.320;15.998;2023-07-20T11:31:23;35.28;36.67
69938;DHT22;57248;47.320;15.998;2023-07-20T11:33:56;34.76;37.76
69938;DHT22;57248;47.320;15.998;2023-07-20T11:36:21;33.97;38.84
69938;DHT22;57248;47.320;15.998;2023-07-20T11:38:53;33.63;40.15
69938;DHT22;57248;47.320;15.998;2023-07-20T11:41:26;32.85;44.21
69938;DHT22;57248;47.320;15.998;2023-07-20T11:43:58;32.72;42.61
69938;DHT22;57248;47.320;15.998;2023-07-20T11:46:31;31.14;47.16
69938;DHT22;57248;47.320;15.998;2023-07-20T11:49:09;30.10;52.71
69938;DHT22;57248;47.320;15.998;2023-07-20T11:51:43;28.13;57.13
69938;DHT22;57248;47.320;15.998;2023-07-20T11:54:16;27.85;57.65
69938;DHT22;57248;47.320;15.998;2023-07-20T11:56:42;28.97;59.73
69938;DHT22;57248;47.320;15.998;2023-07-20T11:59:14;32.58;53.86
69938;DHT22;57248;47.320;15.998;2023-07-20T12:01:47;35.84;49.38
69938;DHT22;57248;47.320;15.998;2023-07-20T12:04:18;35.04;47.82
69938;DHT22;57248;47.320;15.998;2023-07-20T12:06:53;33.98;52.64
69938;DHT22;57248;47.320;15.998;2023-07-20T12:09:26;34.52;50.35
69938;DHT22;57248;47.320;15.998;2023-07-20T12:11:58;37.68;44.16
69938;DHT22;57248;47.320;15.998;2023-07-20T12:14:32;35.54;48.27
69938;DHT22;57248;47.320;15.998;2023-07-20T12:17:08;35.92;47.07
69938;DHT22;57248;47.320;15.998;2023-07-20T12:19:44;32.82;48.22
69938;DHT22;57248;47.320;15.998;2023-07-20T12:22:16;32.45;50.33
69938;DHT22;57248;47.320;15.998;2023-07-20T12:24:52;28.28;59.61
69938;DHT22;57248;47.320;15.998;2023-07-20T12:27:27;27.05;66.00
69938;DHT22;57248;47.320;15.998;2023-07-20T12:29:59;25.73;66.60
69938;DHT22;57248;47.320;15.998;2023-07-20T12:32:33;25.39;69.54
69938;DHT22;57248;47.320;15.998;2023-07-20T12:35:05;25.59;68.12
69938;DHT22;57248;47.320;15.998;2023-07-20T12:37:31;24.91;67.49
69938;DHT22;57248;47.320;15.998;2023-07-20T12:40:04;25.38;65.93
69938;DHT22;57248;47.320;15.998;2023-07-20T12:42:38;24.84;68.37
69938;DHT22;57248;47.320;15.998;2023-07-20T12:45:09;25.04;68.75
69938;DHT22;57248;47.320;15.998;2023-07-20T12:47:42;25.32;67.71
69938;DHT22;57248;47.320;15.998;2023-07-20T12:50:15;25.11;66.44
69938;DHT22;57248;47.320;15.998;2023-07-20T12:52:54;24.27;68.55
69938;DHT22;57248;47.320;15.998;2023-07-20T12:55:26;24.39;67.55
69938;DHT22;57248;47.320;15.998;2023-07-20T12:57:52;25.76;65.49
69938;DHT22;57248;47.320;15.998;2023-07-20T13:00:24;26.08;64.34
69938;DHT22;57248;47.320;15.998;2023-07-20T13:02:56;26.92;62.52
69938;DHT22;57248;47.320;15.998;2023-07-20T13:05:28;27.80;60.23
69938;DHT22;57248;47.320;15.998;2023-07-20T13:08:00;28.16;57.33
69938;DHT22;57248;47.320;15.998;2023-07-20T13:10:33;30.41;56.65
69938;DHT22;57248;47.320;15.998;2023-07-20T13:13:06;31.28;51.74
69938;DHT22;57248;47.320;15.998;2023-07-20T13:15:42;30.64;52.01
69938;DHT22;57248;47.320;15.998;2023-07-20T13:18:14;28.41;55.95
69938;DHT22;57248;47.320;15.998;2023-07-20T13:20:47;29.37;56.96
69938;DHT22;57248;47.320;15.998;2023-07-20T13:23:19;29.90;54.24
69938;DHT22;57248;47.320;15.998;2023-07-20T13:25:51;30.30;53.78
69938;DHT22;57248;47.320;15.998;2023-07-20T13:28:23;31.66;50.45
69938;DHT22;57248;47.320;15.998;2023-07-20T13:30:55;32.04;49.88
69938;DHT22;57248;47.320;15.998;2023-07-20T13:33:27;30.34;53.59
69938;DHT22;57248;47.320;15.998;2023-07-20T13:36:00;31.16;52.66
69938;DHT22;57248;47.320;15.998;2023-07-20T13:38:33;31.63;49.74
69938;DHT22;57248;47.320;15.998;2023-07-20T13:41:05;31.25;51.90
69938;DHT22;57248;47.320;15.998;2023-07-20T13:43:37;29.18;54.90
69938;DHT22;57248;47.320;15.998;2023-07-20T13:46:03;28.53;56.71
69938;DHT22;57248;47.320;15.998;2023-07-20T13:48:42;26.76;61.78
69938;DHT22;57248;47.320;15.998;2023-07-20T13:51:14;26.81;63.70
69938;DHT22;57248;47.320;15.998;2023-07-20T13:53:48;26.79;64.35
69938;DHT22;57248;47.320;15.998;2023-07-20T13:56:19;27.42;60.87
69938;DHT22;57248;47.320;15.998;2023-07-20T13:58:52;28.46;60.69
69938;DHT22;57248;47.320;15.998;2023-07-20T14:01:24;30.48;54.97
69938;DHT22;57248;47.320;15.998;2023-07-20T14:03:57;34.09;46.89
69938;DHT22;57248;47.320;15.998;2023-07-20T14:06:31;33.50;47.71
69938;DHT22;57248;47.320;15.998;2023-07-20T14:09:04;34.71;47.93
69938;DHT22;57248;47.320;15.998;2023-07-20T14:11:38;30.60;53.38
69938;DHT22;57248;47.320;15.998;2023-07-20T14:14:10;32.14;52.39
69938;DHT22;57248;47.320;15.998;2023-07-20T14:16:44;34.23;46.78
69938;DHT22;57248;47.320;15.998;2023-07-20T14:19:15;35.58;45.37
69938;DHT22;57248;47.320;15.998;2023-07-20T14:21:41;40.29;36.91
69938;DHT22;57248;47.320;15.998;2023-07-20T14:24:12;40.83;35.59
69938;DHT22;57248;47.320;15.998;2023-07-20T14:26:44;39.12;36.98
69938;DHT22;57248;47.320;15.998;2023-07-20T14:29:16;42.01;32.66
69938;DHT22;57248;47.320;15.998;2023-07-20T14:31:49;37.05;38.56
69938;DHT22;57248;47.320;15.998;2023-07-20T14:34:23;35.68;40.10
69938;DHT22;57248;47.320;15.998;2023-07-20T14:36:59;35.33;41.85
69938;DHT22;57248;47.320;15.998;2023-07-20T14:39:30;33.70;47.15
69938;DHT22;57248;47.320;15.998;2023-07-20T14:42:04;32.83;48.88
69938;DHT22;57248;47.320;15.998;2023-07-20T14:44:36;32.71;48.54
69938;DHT22;57248;47.320;15.998;2023-07-20T14:47:02;32.83;47.00
69938;DHT22;57248;47.320;15.998;2023-07-20T14:49:34;32.59;48.61
69938;DHT22;57248;47.320;15.998;2023-07-20T14:52:20;32.71;46.64
69938;DHT22;57248;47.320;15.998;2023-07-20T14:54:54;33.57;47.00
69938;DHT22;57248;47.320;15.998;2023-07-20T14:57:26;38.19;39.60
69938;DHT22;57248;47.320;15.998;2023-07-20T14:59:58;36.16;40.93
69938;DHT22;57248;47.320;15.998;2023-07-20T15:02:30;36.84;42.15
69938;DHT22;57248;47.320;15.998;2023-07-20T15:04:56;37.29;39.41
69938;DHT22;57248;47.320;15.998;2023-07-20T15:07:29;37.15;38.21
69938;DHT22;57248;47.320;15.998;2023-07-20T15:10:03;38.09;37.82
69938;DHT22;57248;47.320;15.998;2023-07-20T15:12:35;35.64;40.95
69938;DHT22;57248;47.320;15.998;2023-07-20T15:15:14;39.69;35.39
69938;DHT22;57248;47.320;15.998;2023-07-20T15:17:46;39.15;35.94
69938;DHT22;57248;47.320;15.998;2023-07-20T15:20:20;36.37;39.43
69938;DHT22;57248;47.320;15.998;2023-07-20T15:22:53;32.00;47.73
69938;DHT22;57248;47.320;15.998;2023-07-20T15:25:25;30.03;53.58
69938;DHT22;57248;47.320;15.998;2023-07-20T15:28:00;28.01;57.95
69938;DHT22;57248;47.320;15.998;2023-07-20T15:30:31;28.62;56.72
69938;DHT22;57248;47.320;15.998;2023-07-20T15:33:03;28.91;57.02
69938;DHT22;57248;47.320;15.998;2023-07-20T15:35:35;29.00;55.73
69938;DHT22;57248;47.320;15.998;2023-07-20T15:38:09;29.61;55.26
69938;DHT22;57248;47.320;15.998;2023-07-20T15:40:44;28.91;56.61
69938;DHT22;57248;47.320;15.998;2023-07-20T15:43:18;28.55;57.61
69938;DHT22;57248;47.320;15.998;2023-07-20T15:46:00;28.93;56.75
69938;DHT22;57248;47.320;15.998;2023-07-20T15:48:31;29.18;55.82
69938;DHT22;57248;47.320;15.998;2023-07-20T15:51:10;29.08;55.58
69938;DHT22;57248;47.320;15.998;2023-07-20T15:53:45;29.28;56.21
69938;DHT22;57248;47.320;15.998;2023-07-20T15:56:11;28.59;59.50